READY SET RESULTS!

 

Become a fan on facebook!
Saturday
Sep212013

2013 Roots N Blues N BBQ Half Marathon and 10k overall results

Roots N Blues  

Roots N Blues

Overall Finish List

September 21, 2013



Half Marathon

Place Name City Bib No Age Gender Age Group Chip Time Gun Time
1 Todd Williams Columbia MO 784 27 M 1 Top Fin 1:14:33.2 1:14:34.4
2 Ken Moran Kansas CITY 296 43 M 1 Top Fin 1:15:54.5 1:15:55.3
3 Luke Persell St. Louis MO 555 28 M 1 20-29 1:17:18.9 1:17:20.3
4 Taylor Park Lees Summit MO 547 21 M 2 20-29 1:18:34.6 1:18:35.7
5 Andrew Pelikan Columbia MO 553 28 M 3 20-29 1:20:25.7 1:20:28.7
6 Tony Hicks Fulton MO 307 34 M 1 30-39 1:22:00.3 1:22:02.2
7 Kevin Stone Columbia MO 693 29 M 4 20-29 1:22:48.5 1:22:49.9
8 Sam Rouke 815 20 M 5 20-29 1:22:53.4 1:22:54.9
9 clint smith fulton MO 664 37 M 2 30-39 1:24:03.3 1:24:07.4
10 Scott Miller 4201 25 M 6 20-29 1:24:11.3 1:24:13.8
11 Greg Linhart Grandview MO 440 34 M 3 30-39 1:25:15.0 1:25:17.9
12 Andrew O'Connor 823 21 M 7 20-29 1:25:29.1 1:25:30.6
13 Tim Hougland Columbia MO 334 29 M 8 20-29 1:25:41.3 1:25:44.7
14 Nick Gardner 825 19 M 1 15-19 1:25:41.9 1:25:43.2
15 Ethan Zars 828 18 M 2 15-19 1:26:17.4 1:26:18.9
16 Levi Saxe Columbia MO 631 34 M 4 30-39 1:26:23.6 1:26:41.3
17 Andy Emerson Columbia MO 183 44 M 1 40-49 1:26:49.6 1:26:55.7
18 Steven Mankofsky 819 23 M 9 20-29 1:28:07.2 1:28:09.1
19 Ray Vetter Waynesville MO 746 25 M 10 20-29 1:29:28.3 1:29:59.0
20 Kyle Streeter Columbia MO 698 27 M 11 20-29 1:29:28.7 1:29:38.5
21 Hannah Hassemer Columbia MO 282 26 F 1 Top Fin 1:29:47.0 1:29:52.0
22 Chris Lunn Columbia MO 453 35 M 5 30-39 1:29:51.3 1:29:56.9
23 Brian Crow 824 21 M 12 20-29 1:30:20.8 1:30:22.7
24 Jason Vanderfeltz Jefferson City MO 741 39 M 6 30-39 1:30:33.8 1:30:43.7
25 Samuel Christensen Rochester Hills MI 100 25 M 13 20-29 1:30:36.5 1:30:42.6
26 Daniel Hall 843 47 M 2 40-49 1:30:52.4 1:31:01.2
27 Laura Hillard 4212 29 F 1 20-29 1:30:57.6 1:31:01.1
28 Elliot Rutter Columbia MO 620 23 M 14 20-29 1:31:11.5 1:31:18.5
29 Kyle Lisenby 809 33 M 7 30-39 1:31:45.2 1:31:50.5
30 Ross Robertson California MO 605 32 M 8 30-39 1:31:48.2 1:32:03.6
31 Matthew Graham Tempe AZ 250 25 M 15 20-29 1:32:06.3 1:32:07.6
32 John McDonough Columbia MO 479 21 M 16 20-29 1:32:43.2 1:32:46.9
33 Michael Bax Jefferson City MO 33 32 M 9 30-39 1:32:55.7 1:33:01.2
34 Lauren Verzal Columbia MO 745 26 F 2 20-29 1:32:57.3 1:33:01.4
35 Dale Heimann Moberly MO 292 35 M 10 30-39 1:32:57.6 1:33:06.1
36 Dexter Deeds Springfield MO 140 21 M 17 20-29 1:33:10.2 1:33:15.5
37 John Brockman columbia MO 59 34 M 11 30-39 1:33:15.5 1:33:35.9
38 Derick Davis Rogers AR 111 23 M 18 20-29 1:33:17.5 1:33:46.8
39 nigher alfaro montreal MO 9 41 M 3 40-49 1:33:18.5 1:33:26.3
40 Kyle Cook Columbia MO 114 29 M 19 20-29 1:33:51.4 1:33:55.6
41 Steve Stonecipher-Fisher 694 56 M 1 50-59 1:33:52.7 1:34:00.2
42 Rob Borsheski Columbia MO 49 36 M 12 30-39 1:34:04.5 1:34:07.5
43 Christopher Fernandez 818 22 M 20 20-29 1:34:15.4 1:34:16.8
44 Ashley Ermer Columbia MO 185 23 F 3 20-29 1:34:18.9 1:34:25.3
45 Curt Kempf Columbia MO 383 49 M 4 40-49 1:34:24.9 1:34:32.8
46 John Wright Rocheport MO 792 37 M 13 30-39 1:34:32.7 1:35:05.2
47 Jackson McNeal 817 19 M 3 15-19 1:34:36.1 1:34:38.4
48 Garett Reid Concordia MO 589 35 M 14 30-39 1:34:38.1 1:35:01.8
49 Peter McDevitt Columbia MO 478 33 M 15 30-39 1:34:38.2 1:35:54.7
50 Alexandre Magnier Columbia MO 458 37 M 16 30-39 1:35:22.5 1:35:25.2
51 Marzewa Tomicki 832 44 F 1 Top Fin 1:35:28.4 1:35:35.4
52 Sara Spoede 821 21 F 4 20-29 1:35:44.5 1:35:47.1
53 David Reyes Waynesville MO 591 27 M 21 20-29 1:36:08.4 1:36:39.2
54 Nico Yantko Columbia MO 795 26 M 22 20-29 1:36:13.4 1:36:34.3
55 David Mendoza Columbia MO 488 35 M 17 30-39 1:36:33.4 1:36:40.0
56 Thomas Friestad Columbia MO 225 18 M 4 15-19 1:36:35.9 1:36:42.8
57 Chuck Rodewald Sedalia MO 608 56 M 2 50-59 1:36:42.5 1:36:51.9
58 Libby Killgore St. Louis MO 391 25 F 5 20-29 1:36:43.8 1:36:49.1
59 Bradley Mirkovich Waynesville MO 504 25 M 23 20-29 1:36:45.2 1:37:16.3
60 Christi Hodill Lees Summit MO 315 32 F 1 30-39 1:36:45.6 1:36:53.2
61 Dennis Zhu 816 18 M 5 15-19 1:36:50.1 1:36:52.5
62 Daniel Crosby Germantown TN 125 25 M 24 20-29 1:37:08.8 1:37:20.3
63 Brad Earnest Columbia MO 168 46 M 5 40-49 1:37:15.8 1:37:20.4
64 Lawrence Flynn Columbia MO 207 23 M 25 20-29 1:37:25.6 1:37:42.3
65 Genevieve Reaume 814 20 F 6 20-29 1:37:37.2 1:37:39.0
66 Tom Tomicki Columbia MO 837 49 M 6 40-49 1:37:45.0 1:37:52.5
67 Eric Dillon La monte MO 150 38 M 18 30-39 1:37:47.5 1:37:56.9
68 Brent Motter 831 55 M 3 50-59 1:38:11.4 1:38:17.8
69 Craig Riordan Columbia MO 597 28 M 26 20-29 1:38:15.9 1:38:21.1
70 Tyler McClellan Lawrence KS 470 29 M 27 20-29 1:38:18.2 1:39:24.6
71 Stephen Skegg Downers Grove IL 658 57 M 4 50-59 1:38:21.5 1:38:30.6
72 David Logan Raytown MO 446 42 M 7 40-49 1:38:22.7 1:38:46.3
73 Patrick Finney Columbia MO 198 43 M 8 40-49 1:38:24.4 1:38:48.1
74 Carolyn Lacey Columbia MO 414 22 F 7 20-29 1:38:34.4 1:38:57.5
75 Fernando Garcia Miami FL 231 20 M 28 20-29 1:38:36.8 1:39:21.6
76 Jay Guild Oskaloosa IA 261 35 M 19 30-39 1:38:43.1 1:38:47.5
77 Eric Eguina nixa MO 174 30 M 20 30-39 1:39:52.5 1:40:15.7
78 Vanessa Jacoby Ozark MO 353 31 F 2 30-39 1:39:52.9 1:40:02.3
79 Derek Duncan St Louis MO 164 28 M 29 20-29 1:39:54.7 1:40:16.1
80 Sonya Clark Kirksville MO 103 51 F 1 50-59 1:40:10.5 1:40:17.4
81 Lincoln Haynes Moberly MO 286 35 M 21 30-39 1:40:16.4 1:40:27.7
82 Scott Gard Mexico MO 233 36 M 22 30-39 1:40:19.1 1:40:35.3
83 Ryan Bailey St. Louis MO 27 31 M 23 30-39 1:40:27.2 1:41:06.1
84 Gregory Biedermann Columbia MO 41 39 M 24 30-39 1:40:29.0 1:40:36.5
85 Nick Wagner Columbia MO 757 35 M 25 30-39 1:40:30.0 1:40:45.8
86 Will Jackson Columbia MO 351 28 M 30 20-29 1:40:44.7 1:41:47.5
87 Darin Preis Columbia MO 571 42 M 9 40-49 1:40:52.7 1:41:38.4
88 Kevin Kiffe Columbia MO 390 37 M 26 30-39 1:41:06.6 1:41:20.6
89 Nicholas Chabarria Oak Lawn IL 96 21 M 31 20-29 1:41:10.9 1:41:15.1
90 Jeff Hamburg Jefferson City MO 267 44 M 10 40-49 1:41:16.5 1:41:45.1
91 Benjamin Kuster Jefferson City MO 412 37 M 27 30-39 1:41:20.1 1:41:49.1
92 Wes Buchek St. Louis MO 72 33 M 28 30-39 1:41:25.9 1:42:08.1
93 Nicholas Kieffer Columbia MO 389 42 M 11 40-49 1:41:43.3 1:42:20.8
94 Tyler Hoeflicker Columbia MO 317 27 M 32 20-29 1:41:46.0 1:42:23.0
95 Joe Muenster Columbia MO 515 25 M 33 20-29 1:41:46.9 1:41:59.3
96 scott harper chesterfield MO 276 55 M 5 50-59 1:41:48.5 1:41:53.1
97 Dearld Snider 803 40 M 12 40-49 1:41:52.4 1:41:59.5
98 Jason Van Eaton Columbia MO 739 41 M 13 40-49 1:41:52.8 1:41:59.9
99 Kevin Tyler Centralia MO 737 57 M 6 50-59 1:41:56.7 1:42:12.2
100 Alicia Finger Columbia MO 196 24 F 8 20-29 1:41:57.9 1:42:49.0
 
Place Name City Bib No Age Gender Age Group Chip Time Gun Time
101 Matt Hansen Columbia MO 274 39 M 29 30-39 1:42:13.3 1:42:22.6
102 MARC PETERSON CALIFORNIA MO 559 34 M 30 30-39 1:42:18.4 1:42:34.1
103 Holly Shryock Columbia MO 653 31 F 3 30-39 1:42:27.5 1:43:07.6
104 Christopher Rota Columbia MO 614 34 M 31 30-39 1:43:03.3 1:43:35.5
105 Kevin Logan Lake Zurich IL 447 19 M 6 15-19 1:43:06.2 1:43:24.9
106 Walter Lime Marshall MO 438 40 M 14 40-49 1:43:16.2 1:44:34.4
107 Aaron Shaefer new bloomfield MO 648 37 M 32 30-39 1:43:18.9 1:43:54.6
108 Kenny Felts Columbia MO 192 35 M 33 30-39 1:43:22.0 1:43:28.7
109 Robert Hull Columbia MO 344 40 M 15 40-49 1:43:23.4 1:43:50.8
110 Heather Hoeflicker Columbia MO 316 25 F 9 20-29 1:43:26.0 1:44:00.8
111 Kathy Felts Kansas City MO 191 31 F 4 30-39 1:43:34.1 1:43:39.8
112 Peter Hwang Columbia MO 348 33 M 34 30-39 1:43:44.3 1:44:32.1
113 Kara Azotea Columbia MO 24 22 F 10 20-29 1:43:45.3 1:43:58.1
114 Mark Klopfenstein Prairie Village KS 401 50 M 7 50-59 1:44:00.8 1:44:19.2
115 Trevor Harris Columbia MO 280 0 M 1 0- 0 1:44:09.0 1:44:56.0
116 Hunter Swanson Overland Park KS 709 18 M 7 15-19 1:44:09.8 1:44:15.8
117 Jonathan Kersha Columbia MO 387 40 M 16 40-49 1:44:20.7 1:45:35.9
118 Sabrina Denny Lees Summit MO 145 30 F 5 30-39 1:44:25.3 1:44:31.1
119 Eric Milius Fulton MO 498 32 M 35 30-39 1:44:27.2 1:45:18.9
120 Roger Menke Fulton MO 489 50 M 8 50-59 1:44:35.8 1:45:34.4
121 Jonathon Rosen Columbia MO 611 61 M 1 60-99 1:44:35.9 1:44:53.0
122 Joe Denbow Sandwich IL 144 33 M 36 30-39 1:44:39.9 1:45:07.6
123 Benjamin Potter Columbia MO 568 35 M 37 30-39 1:44:40.3 1:45:37.8
124 Tyler Buckman Columbia MO 73 27 M 34 20-29 1:44:41.1 1:45:49.3
125 Aarik Danielsen Columbia MO 135 32 M 38 30-39 1:44:47.8 1:45:27.2
126 August Kryger Columbia MO 411 28 M 35 20-29 1:44:49.2 1:45:43.5
127 Whitley Zitsch Columbia MO 801 23 F 11 20-29 1:44:52.9 1:44:57.7
128 Vesta Hotchkiss Columbia MO 333 25 F 12 20-29 1:44:53.0 1:45:21.3
129 Courtney Rayhill Springfield IL 584 20 F 13 20-29 1:45:01.7 1:45:33.8
130 Mike Coghill Columbia MO 109 25 M 36 20-29 1:45:03.8 1:45:50.2
131 Laura Sullivan Gilbert AZ 704 27 F 14 20-29 1:45:10.6 1:45:25.2
132 Joanna Eleftheriou Columbia MO 177 34 F 6 30-39 1:45:14.1 1:45:33.9
133 Josh Langhammer Clarence MO 421 30 M 39 30-39 1:45:15.3 1:46:13.9
134 Tanya Miceli Columbia MO 495 21 F 15 20-29 1:45:24.1 1:46:10.2
135 Kathleen Frese Jefferson City MO 223 45 F 1 40-49 1:45:24.4 1:45:41.3
136 Greg Hughes 342 50 M 9 50-59 1:45:29.1 1:46:17.6
137 Geoff Custer Columbia MO 133 37 M 40 30-39 1:45:31.5 1:46:29.2
138 Kerry Hickam Columbia MO 306 50 M 10 50-59 1:45:31.7 1:45:56.2
139 Fred Koenig Columbia MO 406 41 M 17 40-49 1:45:44.1 1:46:07.4
140 Andrew Vollmar Saint Louis MO 753 27 M 37 20-29 1:45:50.3 1:46:38.0
141 Amy Ross Rolla MO 612 44 F 2 40-49 1:46:07.7 1:46:17.4
142 Matt Brock Columbia MO 58 30 M 41 30-39 1:46:09.9 1:46:33.2
143 Jeremy Johnson Kirksville MO 359 32 M 42 30-39 1:46:11.5 1:47:09.6
144 Ann Koenig Columbia MO 405 40 F 3 40-49 1:46:16.8 1:46:39.1
145 Melynda Frillman Quincy IL 226 36 F 7 30-39 1:46:20.2 1:46:34.0
146 Heather Cox Columbia MO 119 35 F 8 30-39 1:46:27.8 1:46:43.5
147 Eli Hochstetler Columbia MO 312 36 M 43 30-39 1:46:28.6 1:47:42.8
148 Jeremy Jesse columbia MO 355 34 M 44 30-39 1:46:28.6 1:46:40.3
149 Alberto Diaz-Arias Columbia MO 146 55 M 11 50-59 1:46:37.7 1:47:58.9
150 Tricia Sexauer Columbia MO 647 37 F 9 30-39 1:46:39.4 1:46:53.7
151 Rick Miller Millersville MO 503 52 M 12 50-59 1:47:14.5 1:47:43.7
152 Emily Sherman Columbia MO 652 22 F 16 20-29 1:47:15.8 1:47:30.4
153 Rachel Reynolds Grain Valley MO 592 26 F 17 20-29 1:47:24.3 1:47:39.7
154 Lisa Menne Columbia MO 490 21 F 18 20-29 1:47:24.7 1:47:39.3
155 brandon wiest Columbia MO 778 25 M 38 20-29 1:47:24.7 1:48:04.0
156 Jeffrey Mazur Ashland MO 467 35 M 45 30-39 1:47:27.0 1:48:10.6
157 Rachel Pankau Saint Joseph MO 545 19 F 1 15-19 1:47:32.4 1:48:11.8
158 Tyler Rice Springfield MO 596 20 M 39 20-29 1:47:36.8 1:47:45.1
159 Peter O'Keefe 813 19 M 8 15-19 1:47:38.0 1:48:04.5
160 Heidi Hibbard Columbia MO 305 26 F 19 20-29 1:47:39.2 1:48:21.7
161 Butch McFetters Columbia MO 481 50 M 13 50-59 1:47:40.6 1:48:29.3
162 Lori Howard Jefferson City MO 335 36 F 10 30-39 1:47:47.8 1:48:09.5
163 Lyle Best Bronaugh MO 37 34 M 46 30-39 1:47:47.9 1:48:09.3
164 Julie Roberts St. Louis MO 602 26 F 20 20-29 1:47:51.1 1:48:59.7
165 Wesley Sutton Springfield MO 707 37 M 47 30-39 1:47:52.3 1:47:59.9
166 Julianne Rainbolt St. Louis MO 577 49 F 4 40-49 1:47:55.3 1:48:21.4
167 Paul Andrew St Louis MO 15 58 M 14 50-59 1:47:58.1 1:48:17.0
168 Anna Read Jefferson City MO 585 28 F 21 20-29 1:47:59.4 1:48:12.7
169 Derek Kent Columbia MO 385 33 M 48 30-39 1:48:06.2 1:48:58.0
170 Koby Clements Columbia MO 105 28 M 40 20-29 1:48:06.9 1:48:49.9
171 James Liesen Columbia MO 437 46 M 18 40-49 1:48:08.0 1:48:43.6
172 Rebecca Kneedler Columbia MO 402 37 F 11 30-39 1:48:11.9 1:48:23.0
173 Shane Sparkman St. Louis MO 673 40 M 19 40-49 1:48:15.5 1:48:59.8
174 Mat Heinrich Jefferson City MO 294 24 M 41 20-29 1:48:18.8 1:48:40.7
175 Greg Zguta Columbia MO 799 39 M 49 30-39 1:48:19.2 1:49:42.3
176 Amy Pescaglia Columbia MO 556 38 F 12 30-39 1:48:26.0 1:48:41.0
177 bill frazier Kearney MO 218 51 M 15 50-59 1:48:26.1 1:49:27.2
178 Ana Kelty Columbia MO 382 27 F 22 20-29 1:48:27.1 1:49:29.7
179 James Quinn Columbia MO 576 54 M 16 50-59 1:48:30.6 1:49:02.6
180 Bradley Nave 525 31 M 50 30-39 1:48:38.2 1:49:22.0
181 Rob Deleeuw Columbia MO 142 0 M 2 0- 0 1:48:44.3 1:49:42.3
182 sheri green salem MO 255 28 F 23 20-29 1:48:48.5 1:48:59.2
183 Matthew Philpott Saint Louis MO 561 50 M 17 50-59 1:48:48.8 1:49:13.0
184 jason green salem MO 254 30 M 51 30-39 1:48:49.0 1:48:59.8
185 Miranda Easley Moberly MO 169 28 F 24 20-29 1:48:53.7 1:49:28.6
186 Todd Gray Fulton MO 251 41 M 20 40-49 1:48:55.4 1:49:56.7
187 Amy Armstrong Columbia MO 19 21 F 25 20-29 1:49:01.4 1:49:47.9
188 Emily Bristol Worcester NY 57 24 F 26 20-29 1:49:04.7 1:50:12.0
189 Travis Stewart Springfield MO 689 23 M 42 20-29 1:49:04.9 1:49:29.4
190 Stephanie Fraley Sedalia MO 216 37 F 13 30-39 1:49:08.8 1:49:26.7
191 Shawna Davis Logansport IN 139 41 F 5 40-49 1:49:08.8 1:49:26.3
192 CJ Davis Logansport IN 137 42 M 21 40-49 1:49:11.3 1:49:29.7
193 Paul Baillargevn 830 31 M 52 30-39 1:49:40.7 1:50:33.3
194 Casay Camp 844 50 M 18 50-59 1:49:43.4 1:49:55.4
195 Mark Tinsley 723 36 M 53 30-39 1:49:44.0 1:49:55.5
196 Lindsey Jacobs Wildwood MO 352 37 F 14 30-39 1:49:53.5 1:50:36.0
197 tom ellis s MO 180 56 M 19 50-59 1:49:54.2 1:50:02.3
198 Kevin O'Connor Kansas City MO 530 29 M 43 20-29 1:49:55.7 1:51:08.3
199 Jeremy Tignor Carl Junction MO 722 36 M 54 30-39 1:49:59.6 1:50:51.7
200 Charles Faris St. Louis MO 190 34 M 55 30-39 1:50:10.4 1:50:37.4
 
Place Name City Bib No Age Gender Age Group Chip Time Gun Time
201 Ted Luecke Kansas City KS 451 25 M 44 20-29 1:50:25.9 1:51:16.3
202 Vicki Vieira-Potter Columbia MO 749 34 F 15 30-39 1:50:26.1 1:51:17.0
203 Paige McCane Columbia MO 468 21 F 27 20-29 1:50:26.6 1:50:29.1
204 Jon Sanner St. Louis MO 628 0 M 3 0- 0 1:50:29.4 1:50:52.2
205 Tim Ross 805 20 M 45 20-29 1:50:37.6 1:51:06.9
206 Matthew Medley 4202 22 M 46 20-29 1:50:52.6 1:51:19.2
207 Michael Brockman St. Louis MO 60 25 M 47 20-29 1:51:00.0 1:51:50.1
208 Lauren Bridgewater Columbia MO 56 21 F 28 20-29 1:51:01.6 1:51:58.5
209 Janelle Strother Hannibal MO 700 25 F 29 20-29 1:51:04.6 1:51:15.8
210 Patricia Dillistin Kansas City MO 148 29 F 30 20-29 1:51:15.9 1:51:48.7
211 Gary Wilbers Jefferson City MO 780 46 M 22 40-49 1:51:19.5 1:52:16.4
212 Kyle Heer Tulsa OK 289 27 M 48 20-29 1:51:20.1 1:52:20.9
213 Stephanie Romero Columbia MO 4204 22 F 31 20-29 1:51:21.8 1:52:11.6
214 Sophia Title Columbia MO 724 19 F 2 15-19 1:51:31.5 1:52:34.4
215 Darren Shaw Columbia MO 651 22 M 49 20-29 1:51:32.3 1:51:58.6
216 Mark Alexiou Columbia MO 8 43 M 23 40-49 1:51:34.0 1:51:40.2
217 Erin Hassan Columbia MO 281 27 F 32 20-29 1:51:37.8 1:52:29.1
218 Alison Crist Quincy IL 123 32 F 16 30-39 1:51:46.0 1:51:59.7
219 James Smith Jefferson City MO 665 54 M 20 50-59 1:51:46.1 1:51:56.1
220 Beau Crist Quincy IL 124 35 M 56 30-39 1:51:46.8 1:52:00.0
221 Chuck Huhman Columbia MO 343 44 M 24 40-49 1:51:54.5 1:52:15.5
222 Marty McCormick Columbia MO 474 43 F 6 40-49 1:51:55.1 1:52:15.4
223 Kym Pieper Columbia MO 562 44 F 7 40-49 1:51:55.3 1:52:15.9
224 Marcel A Clarke Columbia MO 104 20 F 33 20-29 1:51:55.6 1:52:02.8
225 Eliabeth Conrow 833 34 F 17 30-39 1:51:55.6 1:52:35.0
226 Regina Kuster Jefferson City MO 413 37 F 18 30-39 1:51:59.4 1:52:28.0
227 Karen Sanner St. Louis MO 629 44 F 8 40-49 1:52:00.8 1:52:23.3
228 Victoria Rebman Saint Louis MO 587 31 F 19 30-39 1:52:02.3 1:52:37.4
229 Dan Kline Columbia MO 397 27 M 50 20-29 1:52:04.4 1:52:35.9
230 Lauren Spragg Columbia MO 674 25 F 34 20-29 1:52:04.5 1:52:55.0
231 Katie Rapp Columbia MO 583 22 F 35 20-29 1:52:06.0 1:52:13.1
232 Jared Burton Kansas City MO 85 35 M 57 30-39 1:52:06.3 1:53:18.3
233 Heather Doyle Tipton MO 159 35 F 20 30-39 1:52:06.7 1:52:44.6
234 Matthew Robe Columbia MO 600 52 M 21 50-59 1:52:07.8 1:52:19.8
235 Dylan Ash California MO 20 15 M 9 15-19 1:52:11.6 1:52:21.5
236 Kyle Buschbacher Columbia MO 87 22 M 51 20-29 1:52:16.5 1:52:50.1
237 John Rebman Saint Louis MO 586 32 M 58 30-39 1:52:23.1 1:52:58.5
238 Darren Grayson 252 47 M 25 40-49 1:52:31.3 1:53:05.2
239 Phil Wright Columbia MO 794 50 M 22 50-59 1:52:43.2 1:52:51.3
240 Steven Pagan Houston TX 543 32 M 59 30-39 1:52:44.6 1:53:20.0
241 Steve Friedman Columbia MO 224 44 M 26 40-49 1:52:50.2 1:52:59.5
242 Christina Vodnansky Holts Summit MO 750 39 F 21 30-39 1:52:50.3 1:53:30.0
243 Libby Hilboldt Columbia MO 311 0 F 1 0- 0 1:52:53.6 1:53:28.9
244 Mark Kempf Linn Creek MO 384 42 M 27 40-49 1:53:05.0 1:54:23.1
245 KJ Waltrip Springfield MO 760 25 F 36 20-29 1:53:05.3 1:54:05.4
246 Marilyn Mihalovich Kirksville MO 497 48 F 9 40-49 1:53:08.4 1:53:14.8
247 Josh IntVeld Columbia MO 350 32 M 60 30-39 1:53:10.1 1:54:17.1
248 Randy Stewart springfield MO 688 55 M 23 50-59 1:53:18.1 1:53:44.2
249 Julie Viehmann Hannibal MO 748 32 F 22 30-39 1:53:31.3 1:53:43.1
250 Donna Senciboy Manchester MO 646 33 F 23 30-39 1:53:31.4 1:53:42.9
251 Clayton Clark Columbia MO 102 27 M 52 20-29 1:53:32.0 1:53:55.7
252 Melissa Malone Columbia MO 460 37 F 24 30-39 1:53:35.2 1:53:47.6
253 Lisa Johnson Fulton MO 362 41 F 10 40-49 1:53:35.2 1:53:47.8
254 Angela Hanna Edmond OK 272 32 F 25 30-39 1:53:36.1 1:54:39.7
255 Brian Kesner Ballwin MO 388 36 M 61 30-39 1:53:44.5 1:54:39.1
256 David Duff Kansas City MO 161 27 M 53 20-29 1:53:45.1 1:54:06.6
257 Marcus Moor Springfield MO 508 25 M 54 20-29 1:53:46.2 1:54:08.5
258 Doug Walter Salem MO 759 55 M 24 50-59 1:53:57.3 1:54:08.3
259 Kristen Strange Kirkwood MO 697 29 F 37 20-29 1:53:59.4 1:54:42.1
260 Jason Naeger Hallsville MO 523 40 M 28 40-49 1:54:00.8 1:54:20.3
261 Curtis Lewis Palm Bay FL 432 43 M 29 40-49 1:54:07.1 1:55:15.4
262 Liz Leingang 822 21 F 38 20-29 1:54:15.6 1:54:18.7
263 Isaac Davis Columbia MO 138 33 M 62 30-39 1:54:19.1 1:55:11.5
264 Claudia Lasys Quincy IL 422 50 F 2 50-59 1:54:23.1 1:54:36.1
265 Joni Wilson Philadelphia MO 786 55 F 3 50-59 1:54:35.1 1:54:49.4
266 Ken McGrail Salem MO 482 63 M 2 60-99 1:54:41.4 1:54:50.8
267 Tom Sandifer Columbia MO 627 29 M 55 20-29 1:54:42.6 1:55:57.7
268 Michael Klamm Auxvasse MO 396 25 M 56 20-29 1:54:44.3 1:55:36.7
269 Becky Lynn Jefferson City MO 455 43 F 11 40-49 1:54:45.0 1:55:01.8
270 David Tramel Jefferson City MO 726 49 M 30 40-49 1:54:46.0 1:55:02.6
271 Amy Reitz Quincy IL 590 41 F 12 40-49 1:54:48.0 1:55:03.0
272 Blakely Swanson Columbia MO 708 22 F 39 20-29 1:54:52.7 1:54:58.2
273 Michaela Cohen Columbia MO 110 20 F 40 20-29 1:54:55.2 1:55:23.1
274 Marcus Solomon columbia MO 671 23 M 57 20-29 1:54:55.4 1:55:23.2
275 Alex Holliday Columbia MO 322 20 M 58 20-29 1:55:00.9 1:55:21.9
276 Zachary Holliday Columbia MO 323 27 M 59 20-29 1:55:02.1 1:55:22.3
277 Ric Wilmoth Columbia MO 785 24 M 60 20-29 1:55:05.8 1:56:20.3
278 Alex George Columbia MO 237 43 M 31 40-49 1:55:07.3 1:55:25.4
279 Mark Bullimore Liberty MO 77 32 M 63 30-39 1:55:10.1 1:56:00.2
280 Marc Johnson 836 41 M 32 40-49 1:55:10.2 1:55:28.9
281 Kathleen Occena Columbia MO 835 50 F 4 50-59 1:55:23.4 1:55:41.2
282 Ryan Fleming 1626 University Avenue MO 206 23 M 61 20-29 1:55:25.9 1:56:48.1
283 Alex Flanagin Columbia MO 204 19 M 10 15-19 1:55:29.3 1:55:58.6
284 Kelli Alumbaugh Springfield MO 13 33 F 26 30-39 1:55:34.2 1:56:20.5
285 Robert Eichelberger Columbia MO 175 59 M 25 50-59 1:55:37.1 1:55:55.6
286 Debbie Rodman Columbia MO 609 42 F 13 40-49 1:55:38.8 1:56:15.7
287 Linze Leimkuehler Marshall MO 428 27 F 41 20-29 1:55:40.6 1:55:51.2
288 Joseph Mulia Columbia MO 516 29 M 62 20-29 1:55:42.5 1:56:55.8
289 Rachel Rogers 846 19 F 3 15-19 1:55:45.2 1:55:59.6
290 Kyle Nelson 527 21 M 63 20-29 1:55:46.6 1:55:51.1
291 Hannah McCausland 826 18 F 4 15-19 1:55:50.0 1:55:52.0
292 Brandon Beyer Columbia MO 38 21 M 64 20-29 1:55:52.7 1:56:06.8
293 James Campbell Columbia MO 91 54 M 26 50-59 1:55:54.0 1:56:33.9
294 Greg Salmons Fulton MO 622 51 M 27 50-59 1:55:54.9 1:56:36.8
295 Morgan McCarty Columbia MO 469 23 F 42 20-29 1:56:01.2 1:56:21.7
296 Nathan Tuttle Valley Park MO 736 32 M 64 30-39 1:56:05.0 1:56:59.3
297 Keli Goins Moberly MO 245 35 F 27 30-39 1:56:15.2 1:56:48.9
298 Kelly Griffin Columbia MO 258 20 F 43 20-29 1:56:15.5 1:57:05.8
299 scott blumberg St Peters MO 44 25 M 65 20-29 1:56:17.2 1:56:49.3
300 Angela Ramsey 802 38 F 28 30-39 1:56:20.1 1:56:32.9
 
Place Name City Bib No Age Gender Age Group Chip Time Gun Time
301 Hattie Wheeler Columbia MO 772 26 F 44 20-29 1:56:26.0 1:57:16.0
302 Sabrina Holtzman Milwaukee WI 325 32 F 29 30-39 1:56:33.6 1:57:43.0
303 Jill Ferguson Columbia MO 194 34 F 30 30-39 1:56:38.1 1:57:21.9
304 Allen Huggins Columbia MO 340 39 M 65 30-39 1:56:56.1 1:57:17.6
305 Andy Dummerth St. Louis MO 162 24 M 66 20-29 1:57:00.3 1:58:07.2
306 Valerie Higginbotham Columbia MO 310 37 F 31 30-39 1:57:05.0 1:57:25.0
307 Carrie Noland New London MO 529 35 F 32 30-39 1:57:12.7 1:57:24.9
308 Katie Doman Jefferson City MO 156 37 F 33 30-39 1:57:13.0 1:57:25.0
309 Brett Bardon Florissant MO 29 26 M 67 20-29 1:57:23.2 1:58:16.4
310 Bulent Koc Columbia MO 404 40 M 33 40-49 1:57:23.9 1:58:40.6
311 Andrea Matlock Columbia MO 465 33 F 34 30-39 1:57:27.0 1:57:49.4
312 Leah Freeze Columbia MO 221 27 F 45 20-29 1:57:27.9 1:57:53.8
313 Anne Essing Columbia MO 187 39 F 35 30-39 1:57:28.7 1:57:54.3
314 Teah Hopper Columbia MO 327 29 F 46 20-29 1:57:28.9 1:57:54.2
315 Whitney Buckman Monroe City MO 74 22 F 47 20-29 1:57:32.8 1:57:42.5
316 MAXWELL DROWN COLUMBIA MO 160 41 M 34 40-49 1:57:41.3 1:58:54.3
317 Adam Wheeler Columbia MO 771 35 M 66 30-39 1:57:44.5 1:58:23.6
318 Raymond St. Omer Columbia MO 681 42 M 35 40-49 1:57:44.6 1:58:47.6
319 Matthew Clardy Jefferson City MO 101 23 M 68 20-29 1:57:53.2 1:58:41.8
320 Reid Samuel Kansas City MO 624 27 M 69 20-29 1:58:01.7 1:58:40.2
321 scott johnson columbia MO 364 42 M 36 40-49 1:58:17.6 1:58:47.8
322 Holly Phillips Mexico MO 560 25 F 48 20-29 1:58:20.3 1:58:51.3
323 Eren Poe Columbia MO 564 35 F 36 30-39 1:58:22.2 1:58:43.2
324 Chris Jolly Jefferson City MO 366 41 M 37 40-49 1:58:23.9 1:58:42.3
325 Cody Cox Kansas City MO 118 25 M 70 20-29 1:58:25.6 1:58:55.0
326 Angie Craig Columbia MO 121 33 F 37 30-39 1:58:29.8 1:58:44.1
327 Rachel AuBuchon Columbia MO 21 33 F 38 30-39 1:58:30.2 1:59:32.8
328 Emily Rapp Boonville MO 581 32 F 39 30-39 1:58:33.0 1:59:16.1
329 Susan Linneman Columbia MO 443 25 F 49 20-29 1:58:34.9 1:59:00.2
330 Josh McNutt Lee's Summit MO 487 25 M 71 20-29 1:58:35.9 1:58:48.1
331 John Crumley 848 55 M 28 50-59 1:58:36.9 1:59:41.7
332 Kaelyn Spratt Philadelphia MO 676 18 F 5 15-19 1:58:40.0 1:59:04.1
333 Morgan Spratt Philadelphia MO 678 21 F 50 20-29 1:58:41.8 1:59:06.7
334 Chris Lorson Columbia MO 449 44 M 38 40-49 1:58:42.9 1:59:02.3
335 Cydney Mayfield Pilot Grove MO 466 35 F 40 30-39 1:58:46.3 1:59:28.6
336 Stephanie Kaiser Des Peres MO 372 25 F 51 20-29 1:59:05.5 2:00:12.2
337 SHELLY HAGAN Plano TX 263 19 F 6 15-19 1:59:09.8 1:59:12.5
338 Ashley Bertich 812 18 F 7 15-19 1:59:10.2 1:59:12.3
339 Laura Cushing Omaha NE 132 39 F 41 30-39 1:59:10.3 2:00:02.0
340 Matt Krause Jefferson City MO 408 40 M 39 40-49 1:59:17.6 2:00:16.2
341 Zhenyu Wang Columbia MO 762 32 M 67 30-39 1:59:20.6 2:00:06.2
342 Gloria Burton Moberly MO 84 63 F 1 60-99 1:59:26.9 2:00:38.8
343 Caesar Simon Sausalito CA 656 42 M 40 40-49 1:59:29.4 2:00:32.5
344 Bethany Leibovich Columbia MO 427 21 F 52 20-29 1:59:46.1 2:00:32.3
345 Lillian Vickery Saint Peters MO 747 51 F 5 50-59 1:59:47.1 2:00:23.3
346 Vanessa Dorman Boonville MO 157 52 F 6 50-59 1:59:49.3 2:00:46.1
347 Nancy Stitzer Moberly MO 691 50 F 7 50-59 1:59:49.6 2:00:24.3
348 Sean Heup Belleville IL 304 45 F 14 40-49 1:59:52.3 2:00:37.4
349 Rachel Brown Unionville MO 64 17 F 8 15-19 1:59:57.9 2:00:54.8
350 Sean Frazier Columbia MO 220 40 M 41 40-49 2:00:09.3 2:00:13.1
351 Fay Putnam Columbia MO 574 44 F 15 40-49 2:00:11.7 2:01:26.1
352 Gina Whorley Columbia MO 774 30 F 42 30-39 2:00:12.1 2:00:56.1
353 Maura Schnoebelen Saint Louis MO 637 28 F 53 20-29 2:00:20.7 2:01:27.3
354 Sydney Olinger St. Joseph MO 533 19 F 9 15-19 2:00:21.4 2:00:54.1
355 Stuart Lloyd-Smith Kansas City MO 444 24 M 72 20-29 2:00:26.6 2:01:39.4
356 Thomas Schreiber Columbia MO 638 19 M 11 15-19 2:00:36.2 2:01:56.0
357 Jenny Bossaller Columbia MO 50 41 F 16 40-49 2:00:36.2 2:00:51.5
358 Carsen Jones Bourbon MO 368 22 M 73 20-29 2:00:44.9 2:01:09.0
359 Joe Ellison Columbia MO 181 36 M 68 30-39 2:00:47.4 2:01:41.1
360 Katy Beyer Columbia MO 39 20 F 54 20-29 2:00:48.4 2:01:02.7
361 Allison Zimbalist Columbia MO 800 32 F 43 30-39 2:00:48.9 2:01:53.1
362 Nathan Justin St. Robert MO 371 28 M 74 20-29 2:00:50.1 2:01:51.3
363 Sarah Rothstein Fulton MO 615 27 F 55 20-29 2:00:50.3 2:01:51.2
364 Stephanie Burton Moberly MO 86 39 F 44 30-39 2:00:54.7 2:01:29.8
365 Cameron Ritter St. Louis MO 598 27 M 75 20-29 2:00:55.4 2:02:02.4
366 Andy Besselman OFallon MO 36 23 M 76 20-29 2:00:58.7 2:02:03.5
367 Breanne Frakes Columbia MO 215 20 F 56 20-29 2:01:00.4 2:01:44.9
368 Erika Haley Waynesville MO 264 32 F 45 30-39 2:01:01.0 2:02:10.1
369 Gina Heckman Freeburg MO 288 30 F 46 30-39 2:01:02.1 2:02:05.7
370 Sarah Wieberg Westphalia MO 776 28 F 57 20-29 2:01:03.7 2:02:07.2
371 Hana Katsenes Columbia MO 376 27 F 58 20-29 2:01:04.3 2:02:07.1
372 Lindsay Sureck Columbia MO 706 22 F 59 20-29 2:01:11.5 2:02:22.8
373 Warrick Wadman Columbia MO 755 39 M 69 30-39 2:01:12.1 2:01:37.8
374 Emma Lennon Columbia MO 430 23 F 60 20-29 2:01:15.9 2:01:57.6
375 Danielle Sureck Columbia MO 705 19 F 10 15-19 2:01:18.9 2:02:30.0
376 Lynsey Foster Columbia MO 212 28 F 61 20-29 2:01:32.9 2:01:55.6
377 Frank Townsend Annville PA 725 44 M 42 40-49 2:01:41.8 2:02:47.8
378 Don Terreri Phoenix AZ 716 51 M 29 50-59 2:01:43.0 2:02:34.9
379 Carmen Simon Sausalito CA 657 39 F 47 30-39 2:01:45.5 2:02:47.7
380 Faith Posey Belleville IL 567 37 F 48 30-39 2:01:50.1 2:02:35.5
381 Gabe Huffington Columbia MO 339 34 M 70 30-39 2:01:52.3 2:02:58.3
382 Megan Hilling 827 18 F 11 15-19 2:02:04.8 2:02:06.7
383 Rachel Osterhaus Lawrence KS 538 25 F 62 20-29 2:02:09.6 2:03:15.9
384 Elaine Foster 211 61 F 2 60-99 2:02:12.1 2:02:54.5
385 Allison Watkins Saint Louis MO 763 20 F 63 20-29 2:02:14.5 2:02:47.4
386 Sarah Crumley Lee's Summit MO 127 29 F 64 20-29 2:02:18.3 2:03:22.1
387 Alison Pantuso Little Rock AR 546 27 F 65 20-29 2:02:24.8 2:03:00.2
388 Jennifer Biere Salisbury MO 42 38 F 49 30-39 2:02:36.1 2:03:11.2
389 Justin McElwain Springfield MO 480 29 M 77 20-29 2:02:50.4 2:03:29.7
390 Jeremy Ford Carrollton MO 209 31 M 71 30-39 2:02:55.1 2:03:20.6
391 Chancie Azdell Columbia MO 23 31 F 50 30-39 2:02:57.5 2:03:20.7
392 Nathan Fennewald Maryland Heights MO 193 26 M 78 20-29 2:03:04.6 2:03:22.2
393 Jennifer Sellers Maryland Heights MO 645 27 F 66 20-29 2:03:05.1 2:03:22.2
394 Robin Wilson saint peters MO 787 48 F 17 40-49 2:03:20.4 2:04:25.2
395 Phil Stit Moberly MO 690 51 M 30 50-59 2:03:23.7 2:03:56.3
396 Jill Head Moberly MO 287 43 F 18 40-49 2:03:24.2 2:03:56.0
397 david cunningham st louis MO 130 52 M 31 50-59 2:03:28.6 2:03:47.9
398 Ann Cardetti Columbia MO 93 36 F 51 30-39 2:03:29.9 2:03:52.6
399 Cindy Woodard Columbia MO 791 21 F 67 20-29 2:03:36.1 2:04:09.8
400 Katie Epstein Columbia MO 184 30 F 52 30-39 2:03:43.1 2:04:31.1
 
Place Name City Bib No Age Gender Age Group Chip Time Gun Time
401 Dan Lennon Columbia MO 429 63 M 3 60-99 2:03:51.6 2:04:32.6
402 Nathan Buford Columbia MO 76 21 M 79 20-29 2:04:03.4 2:04:26.4
403 Rob Johnson Holts Summit MO 363 30 M 72 30-39 2:04:05.7 2:04:40.6
404 Jeremy Kirsch Jefferson City MO 393 36 M 73 30-39 2:04:06.9 2:04:37.5
405 Kyle Stover Jefferson City MO 695 22 F 68 20-29 2:04:08.5 2:05:01.5
406 Sandy Stover Jefferson City MO 696 46 F 19 40-49 2:04:09.0 2:05:01.8
407 Wes Vega Ballwin MO 744 49 M 43 40-49 2:04:21.0 2:05:05.1
408 Matthew Sekelsky Holts Summit MO 644 30 M 74 30-39 2:04:21.9 2:04:56.7
409 Sidney Daller Hermann MO 134 22 M 80 20-29 2:04:27.4 2:04:37.3
410 Carley Sears 820 20 F 69 20-29 2:04:28.6 2:04:54.0
411 Brooke Kelly Hannibal MO 381 38 F 53 30-39 2:04:28.9 2:05:38.3
412 Jane Beckman St. Peters MO 35 53 F 8 50-59 2:04:29.4 2:05:06.1
413 Judy Pruitt Columbia MO 572 46 F 20 40-49 2:04:39.3 2:05:07.8
414 Kristen Carter Lees Summit MO 94 0 F 2 0- 0 2:04:41.7 2:05:20.0
415 Chris Kassotis Columbia MO 374 28 M 81 20-29 2:04:41.8 2:05:09.2
416 Cassie Laemmli Jefferson City MO 418 27 F 70 20-29 2:04:47.0 2:04:56.8
417 Tina McNeil Columbia MO 486 27 F 71 20-29 2:04:55.3 2:05:04.4
418 Marry Boggs 45 47 F 21 40-49 2:04:59.2 2:05:59.6
419 rebecca fitzpatrick columbia MO 203 0 F 3 0- 0 2:05:00.9 2:05:05.4
420 Amanda Porter Kirksville MO 565 33 F 54 30-39 2:05:15.9 2:05:49.8
421 April Sommer St. Paul MO 672 28 F 72 20-29 2:05:16.7 2:06:21.4
422 Brendan Sullivan Saint Louis MO 703 45 M 44 40-49 2:05:19.6 2:05:57.6
423 NATHAN EVANS OSAGE BEACH MO 188 47 M 45 40-49 2:05:21.9 2:06:20.5
424 Emily Orvos Kansas City MO 537 19 F 12 15-19 2:05:23.6 2:06:20.2
425 Allie Smith Columbia MO 660 0 F 4 0- 0 2:05:27.6 2:06:38.9
426 Tami Rice versailles MO 595 52 F 9 50-59 2:05:33.8 2:06:29.8
427 Elizabeth Bryda Columbia MO 71 49 F 22 40-49 2:05:34.1 2:06:24.8
428 Cami Aebersold Plattsburg MO 7 41 F 23 40-49 2:05:43.1 2:06:18.9
429 Andrew Hathaway Springfield IL 283 32 M 75 30-39 2:05:46.2 2:05:51.2
430 Kaitlin Foley Chicago IL 208 24 F 73 20-29 2:05:52.0 2:06:54.8
431 Peter Rao Osage Beach MO 580 46 M 46 40-49 2:05:56.8 2:06:05.3
432 Leanna Sharpe Mexico MO 650 31 F 55 30-39 2:06:13.9 2:06:31.4
433 Jeff Krug Columbia MO 409 44 M 47 40-49 2:06:19.7 2:07:37.4
434 Allison Adolphson Columbia MO 6 25 F 74 20-29 2:06:39.1 2:07:32.9
435 Shannon Flanakin Maryland Heights MO 205 21 F 75 20-29 2:06:42.1 2:07:50.3
436 Deb Braun Omaha NE 53 44 F 24 40-49 2:06:42.3 2:07:33.4
437 Kathy Butler Lee's Summit MO 89 39 F 56 30-39 2:06:44.8 2:07:22.7
438 Ed Makos St. Joseph MO 459 58 M 32 50-59 2:06:48.1 2:07:55.5
439 Jeff Porter 566 30 M 76 30-39 2:06:48.4 2:08:06.0
440 Melissa Everitt Columbia MO 189 35 F 57 30-39 2:06:55.3 2:07:31.1
441 James Dixon Springfield MO 153 43 M 48 40-49 2:06:59.6 2:08:26.9
442 Kelley Hein Kansas City KS 293 24 F 76 20-29 2:07:08.0 2:08:24.3
443 Brenna Webster Columbia MO 766 21 F 77 20-29 2:07:10.9 2:07:26.0
444 Sarah Lueckenhoff Jefferso MO 452 32 F 58 30-39 2:07:19.9 2:08:14.0
445 Joseph Fugate Gentry AR 228 26 M 82 20-29 2:07:30.9 2:07:57.7
446 Sharon Shaefer New Bloomfield MO 649 60 F 3 60-99 2:07:35.9 2:08:32.4
447 Nathan Byrne Columbia MO 90 36 M 77 30-39 2:07:39.0 2:08:47.4
448 Thomas Hueber Kirksville MO 338 53 M 33 50-59 2:07:40.5 2:08:26.1
449 Megan Hueber Kirksville MO 337 20 F 78 20-29 2:07:40.5 2:08:26.1
450 Amanda Abbott Pleasant valley MO 1 21 F 79 20-29 2:07:52.8 2:08:33.8
451 Michelle Haner Columbia MO 271 34 F 59 30-39 2:07:54.4 2:09:04.0
452 Kathryn Wheeler 811 19 F 13 15-19 2:07:54.5 2:08:57.1
453 Adrienne Colcher Kansas City MO 112 27 F 80 20-29 2:08:03.3 2:08:19.3
454 Monica Watrous Kansas City MO 764 28 F 81 20-29 2:08:03.4 2:08:20.1
455 Cain Anliker Columbia MO 17 19 M 12 15-19 2:08:06.1 2:08:23.0
456 Fred Garton Columbia MO 235 60 M 4 60-99 2:08:07.8 2:08:54.4
457 Justine Volkers Blue Springs MO 752 26 F 82 20-29 2:08:08.1 2:08:25.4
458 Sara Brown Columbia MO 65 41 F 25 40-49 2:08:10.4 2:08:36.5
459 Carleigh Thrower Columbia MO 721 18 F 14 15-19 2:08:12.3 2:08:59.5
460 Michael Hamm Knob Noster MO 268 50 M 34 50-59 2:08:20.4 2:08:45.5
461 John Schulz Columbia MO 640 55 M 35 50-59 2:08:21.3 2:09:12.7
462 Rhonda Miller Millersville MO 502 47 F 26 40-49 2:08:22.6 2:09:18.4
463 Sarah Klaassen Columbia MO 395 30 F 60 30-39 2:08:26.0 2:09:41.5
464 Amanda Gerke Columbia MO 238 36 F 61 30-39 2:08:33.5 2:09:20.4
465 Michelle Lackey Fulton MO 415 26 F 83 20-29 2:08:34.0 2:09:35.8
466 Andrea Hughes Manchester MO 341 30 F 62 30-39 2:08:39.9 2:09:39.2
467 Julie Dougherty Kansas City MO 807 47 F 27 40-49 2:08:43.9 2:09:02.1
468 Ukiah Johnson Columbia MO 365 19 M 13 15-19 2:08:44.2 2:09:13.9
469 kara wieberg Mexico MO 775 39 F 63 30-39 2:08:49.4 2:09:24.5
470 Nick Smith Columbia MO 667 22 M 83 20-29 2:08:51.0 2:10:03.8
471 Sean Soendker Nicholson Columbia MO 669 32 M 78 30-39 2:08:54.3 2:09:39.1
472 Lindsay Monser Saint Louis MO 507 50 F 10 50-59 2:08:56.0 2:09:19.3
473 Jessica Klockow 400 25 F 84 20-29 2:09:04.8 2:09:17.6
474 Glenn Vogt columbia MO 751 31 M 79 30-39 2:09:12.1 2:09:32.1
475 Kari Schaal Columbia MO 632 22 F 85 20-29 2:09:12.9 2:09:32.4
476 Kathleen Wohldmann O'Fallon MO 790 45 F 28 40-49 2:09:18.2 2:09:31.5
477 Ryan Schaal Columbia MO 633 27 M 84 20-29 2:09:18.5 2:10:35.5
478 Angie Bardon Florissant MO 28 26 F 86 20-29 2:09:19.7 2:10:12.8
479 Mark Simenson columbia MO 654 45 M 49 40-49 2:09:20.2 2:10:38.3
480 Mai-Khoi Nguyen-Thanh saint louis MO 528 27 F 87 20-29 2:09:37.8 2:10:33.5
481 Andrew Ottinger Ashland MO 539 39 M 80 30-39 2:09:40.3 2:10:57.6
482 Chris Holley St. Louis MO 320 50 M 36 50-59 2:09:41.0 2:10:38.7
483 Meghann Humphries St. Louis MO 346 29 F 88 20-29 2:09:46.9 2:10:55.0
484 Daniel Coffman Columbia MO 108 26 M 85 20-29 2:09:50.4 2:10:31.2
485 Sandra Rice Sedalia MO 594 41 F 29 40-49 2:09:54.4 2:10:08.6
486 Lisa Simmons Columbia MO 655 25 F 89 20-29 2:10:04.2 2:10:32.8
487 Alex Withenbury Saint Robert MO 788 25 M 86 20-29 2:10:08.6 2:10:28.6
488 Catherine Juettner Columbia MO 370 36 F 64 30-39 2:10:16.3 2:10:25.0
489 Sarah Humfeld Columbia MO 345 40 F 30 40-49 2:10:18.0 2:11:18.8
490 Isabelle Bouchard 4207 17 F 15 15-19 2:10:18.9 2:11:00.9
491 Amanda Stevens Fulton MO 687 33 F 65 30-39 2:10:21.2 2:11:03.4
492 John Lewis Wind Lake WI 433 52 M 37 50-59 2:10:23.0 2:10:53.2
493 Nicolle Lewis Columbia MO 435 26 F 90 20-29 2:10:24.5 2:10:53.5
494 Lindsey Ekwerekwu Omaha NE 176 33 F 66 30-39 2:10:25.7 2:10:53.9
495 Natalie Morgensen Columbia MO 510 37 F 67 30-39 2:10:28.2 2:10:51.0
496 Peggy Taylor California MO 714 44 F 31 40-49 2:10:34.2 2:10:37.8
497 Summer Allen Columbia MO 11 64 F 4 60-99 2:10:35.3 2:10:59.9
498 Theresa Allen Maryland Heights MO 12 25 F 91 20-29 2:10:43.6 2:11:36.5
499 Meredith Weinhold St. Louis MO 768 25 F 92 20-29 2:10:44.3 2:11:37.0
500 VICKIE RUCH MILLERSVILLE MO 617 45 F 32 40-49 2:11:11.0 2:12:07.0
 
Place Name City Bib No Age Gender Age Group Chip Time Gun Time
501 Adrienne Orr Ballwin MO 536 37 F 68 30-39 2:11:16.3 2:12:34.7
502 Patty Gerken Bonner springs KS 240 63 F 5 60-99 2:11:28.2 2:12:31.7
503 Aimee Hosmer Hannibal MO 330 27 F 93 20-29 2:11:30.3 2:12:39.7
504 Tashel Bordere Columbia MO 4203 39 F 69 30-39 2:11:44.6 2:12:33.8
505 Anna Gulliford Ozark MO 262 26 F 94 20-29 2:11:44.8 2:11:55.3
506 Jody Chiang Columbia MO 98 38 F 70 30-39 2:11:48.0 2:12:15.3
507 Dawn Youngblood Monroe City MO 797 39 F 71 30-39 2:11:51.5 2:13:05.1
508 Jordan Derose Columbia MO 840 36 F 72 30-39 2:11:51.5 2:12:46.0
509 Chris DeRose 839 41 M 50 40-49 2:11:51.6 2:12:46.0
510 Wendy Gish Columbia MO 244 35 F 73 30-39 2:11:58.6 2:12:36.7
511 Kimberly Boyer Columbia MO 52 40 F 33 40-49 2:12:03.5 2:12:17.3
512 Chuck Wheeler 810 56 M 38 50-59 2:12:07.0 2:13:08.9
513 Liz Duncan Columbia MO 165 44 F 34 40-49 2:12:15.2 2:12:37.2
514 Michelle Pfeiffer 2897 40 F 35 40-49 2:12:39.0 2:13:50.9
515 Brian Fox Springfield MO 214 36 M 81 30-39 2:12:39.7 2:13:54.1
516 Krista Cline Keosauqua IA 106 29 F 95 20-29 2:12:40.5 2:13:24.0
517 Dianne Liesen Columbia MO 436 47 F 36 40-49 2:12:45.2 2:13:19.9
518 Matt Turner Kansas City KS 735 28 M 87 20-29 2:12:50.7 2:14:06.7
519 Danielle Steimel Aurora IL 686 44 F 37 40-49 2:12:52.3 2:13:26.9
520 Sue Boren Columbia MO 48 44 F 38 40-49 2:12:52.7 2:13:27.6
521 Ashley Weed Fulton MO 767 28 F 96 20-29 2:12:53.9 2:13:50.2
522 Luis Occena Columbia MO 834 53 M 39 50-59 2:12:57.2 2:13:15.8
523 Trish Ladyman Sturgeon MO 417 33 F 74 30-39 2:12:58.9 2:14:07.7
524 Jennifer Welsh Columbia MO 770 43 F 39 40-49 2:12:59.3 2:14:07.9
525 Tara Tubbesing Columbia MO 732 30 F 75 30-39 2:13:01.0 2:14:16.6
526 Missy Bailes Jefferson City MO 26 33 F 76 30-39 2:13:01.3 2:14:05.1
527 Haley Horstman Columbia MO 329 29 F 97 20-29 2:13:03.2 2:14:11.8
528 Kendra Pudlowski Jefferson City MO 573 40 F 40 40-49 2:13:04.6 2:14:07.6
529 Abby Hinshaw 2896 14 F 1 1-14 2:13:07.4 2:13:07.4
530 Alexandra Socarides Columbia MO 668 38 F 77 30-39 2:13:11.3 2:13:29.4
531 Rebecca Miller Columbia MO 501 26 F 98 20-29 2:13:13.8 2:13:51.1
532 Courtney Gard Mexico MO 232 34 F 78 30-39 2:13:15.6 2:14:07.9
533 Dianna Mathews Glasgow MO 464 50 F 11 50-59 2:13:19.3 2:13:56.9
534 Adrienne Moritz Tina MO 513 28 F 99 20-29 2:13:19.5 2:13:57.0
535 Kristin Hood Iowa City IA 326 28 F 100 20-29 2:13:24.3 2:14:08.5
536 Joy Holley St. Louis MO 321 43 F 41 40-49 2:13:24.9 2:14:21.5
537 Dan Stokes Columbia MO 692 29 M 88 20-29 2:13:55.3 2:14:34.2
538 Shannon Guest Columbia MO 260 29 F 101 20-29 2:13:55.6 2:14:34.2
539 Kelsey Oerly Columbia MO 532 24 F 102 20-29 2:13:56.6 2:15:07.5
540 Thomas Lindell Columbia MO 439 24 M 89 20-29 2:14:33.4 2:15:26.7
541 Jeff Ditzfeld Ashland MO 152 37 M 82 30-39 2:14:36.4 2:15:43.9
542 Heather Croy 126 35 F 79 30-39 2:14:51.9 2:15:28.6
543 Emily Johnson St. Louis MO 358 29 F 103 20-29 2:14:54.2 2:15:30.3
544 Cassie Bick Springfield MO 40 25 F 104 20-29 2:14:54.6 2:15:53.0
545 Dylan McKinsey Columbia MO 483 23 M 90 20-29 2:14:55.2 2:15:53.2
546 anne tucker Springfield MO 733 52 F 12 50-59 2:14:56.6 2:15:58.9
547 Shaye Onstot Springfield MO 534 27 F 105 20-29 2:15:06.9 2:16:08.9
548 Amber Snider 804 40 F 42 40-49 2:15:14.8 2:15:30.6
549 Ann Cummins Blue Springs MO 128 26 F 106 20-29 2:15:31.4 2:16:26.1
550 Samuel Cummins Blue Springs MO 129 26 M 91 20-29 2:15:31.4 2:16:26.3
551 Lyndi Fuemmeler Marshall MO 227 26 F 107 20-29 2:15:33.8 2:15:49.7
552 Tracey Thompson Bucklin MO 719 29 F 108 20-29 2:15:45.0 2:16:37.1
553 Tracie Gill Columbia MO 243 38 F 80 30-39 2:15:53.6 2:16:31.1
554 Gina Hallam Springfield MO 266 31 F 81 30-39 2:15:55.4 2:16:11.9
555 Jennifer Hall Jefferson City MO 265 41 F 43 40-49 2:16:03.3 2:17:04.5
556 Kari Baumgardner Lees Summit MO 32 28 F 109 20-29 2:16:06.3 2:17:01.5
557 Logan Heer Lawrence KS 290 25 M 92 20-29 2:16:07.7 2:17:11.2
558 Angela Sachs COLUMBIA MO 621 30 F 82 30-39 2:16:12.3 2:16:28.9
559 Beth Sweeney Columbia MO 710 49 F 44 40-49 2:16:19.6 2:17:04.9
560 CHERYL GENTGES LOOSE CREEK MO 236 44 F 45 40-49 2:16:22.6 2:17:33.1
561 Cara King Imperial MO 392 31 F 83 30-39 2:16:23.6 2:17:33.3
562 Amanda Krupnik Columbia MO 410 20 F 110 20-29 2:16:30.0 2:17:20.0
563 Carl Greeson Columbia MO 256 65 M 5 60-99 2:16:40.4 2:17:06.8
564 Brandy Taylor Columbia MO 712 31 F 84 30-39 2:16:46.7 2:17:42.8
565 Scott Loyd 838 43 M 51 40-49 2:16:48.6 2:17:37.6
566 Russell Allen Columbia MO 10 29 M 93 20-29 2:17:10.1 2:18:19.8
567 J'Lynne Mundle Hannibal MO 518 34 F 85 30-39 2:17:11.1 2:18:21.0
568 Connie Brooks Columbia MO 62 41 F 46 40-49 2:17:18.7 2:18:23.2
569 Stephanie Pierce Columbia MO 563 26 F 111 20-29 2:17:21.1 2:18:03.0
570 Jeffrey Miller Columbia MO 841 35 M 83 30-39 2:17:30.3 2:17:47.5
571 Mary Roberts Columbia MO 603 67 F 6 60-99 2:17:40.9 2:18:05.0
572 Matt Barnes Columbia MO 30 24 M 94 20-29 2:17:46.4 2:19:08.3
573 Benjamin Borden Columbia MO 46 28 M 95 20-29 2:17:55.5 2:18:43.7
574 Amy Harrell Eldon MO 279 26 F 112 20-29 2:18:00.0 2:18:10.4
575 Samantha Demarkles Valley Park MO 143 21 F 113 20-29 2:18:01.1 2:18:51.7
576 Charles Ochoa Columbia MO 531 55 M 40 50-59 2:18:09.6 2:18:59.0
577 Amanda Foster Columbia MO 210 25 F 114 20-29 2:18:19.5 2:18:19.5
578 Lionelle Miller Columbia MO 500 43 M 52 40-49 2:18:24.7 2:18:52.0
579 Stephanie Hysong 349 27 F 115 20-29 2:18:35.3 2:19:11.8
580 Scott Manley Sturgeon MO 461 47 M 53 40-49 2:18:59.0 2:19:48.9
581 Deena Troy Mexico MO 731 28 F 116 20-29 2:19:34.2 2:20:06.3
582 Casey Parnell Columbia MO 548 27 F 117 20-29 2:19:47.5 2:20:52.8
583 Mackenzie DiDominic West Mifflin PA 147 21 F 118 20-29 2:19:58.8 2:20:47.9
584 Ronda Jolly Centralia MO 367 0 F 5 0- 0 2:20:10.0 2:21:24.6
585 Brenda Travis Columbia MO 728 41 F 47 40-49 2:20:14.8 2:21:25.4
586 Mark Travis Columbia MO 729 44 M 54 40-49 2:20:15.4 2:21:26.0
587 Cassie Acton columbia MO 5 28 F 119 20-29 2:20:22.1 2:21:08.8
588 Amy Williams Columbia MO 783 30 F 86 30-39 2:20:34.6 2:21:51.1
589 Adam Franklin Columbia MO 217 33 M 84 30-39 2:20:35.0 2:21:51.1
590 Susan Yantko Dayton OH 796 44 F 48 40-49 2:20:40.3 2:21:29.1
591 Kaitlyn McManus Kirksville MO 484 20 F 120 20-29 2:20:43.2 2:21:22.8
592 Cynthia McDannold Saint Louis MO 477 50 F 13 50-59 2:20:52.2 2:21:41.4
593 Steven McCormack Columbia MO 473 41 M 55 40-49 2:20:54.3 2:21:19.2
594 Alaina Sanders Columbia MO 625 16 F 16 15-19 2:21:19.1 2:22:34.4
595 Kim Kliethermes Columbia MO 456 34 F 87 30-39 2:21:25.7 2:22:45.2
596 Nathan Mackley Columbia MO 457 33 M 85 30-39 2:21:26.9 2:22:46.1
597 Jim Meyer Columbia MO 492 45 M 56 40-49 2:21:28.9 2:22:09.4
598 Craig Hosey Columbia MO 1065 39 M 86 30-39 2:21:33.0 2:22:24.3
599 April Utterback Mexico MO 738 36 F 88 30-39 2:21:43.1 2:22:24.4
600 Dana Borden Columbia MO 47 23 F 121 20-29 2:21:50.6 2:22:39.4
 
Place Name City Bib No Age Gender Age Group Chip Time Gun Time
601 Debbie Rosslan Jefferson City MO 613 45 F 49 40-49 2:21:56.5 2:22:00.3
602 Kacy Walz Columbia MO 761 27 F 122 20-29 2:22:02.1 2:23:14.2
603 Melissa Buckman Young Mexico MO 75 29 F 123 20-29 2:22:03.8 2:22:45.3
604 Kenneth Hammann Columbia MO 269 66 M 6 60-99 2:22:19.1 2:22:30.5
605 Blake St. Clair Fayetteville AR 680 20 M 96 20-29 2:22:30.9 2:23:30.3
606 Caroline Green Columbia MO 253 21 F 124 20-29 2:22:31.3 2:23:30.4
607 Caitlin Schuessler Kirkwood MO 639 24 F 125 20-29 2:22:34.2 2:23:46.2
608 Bryan Acree St. Louis MO 4 24 M 97 20-29 2:22:34.4 2:23:46.5
609 Meaghan Hohe st. charles MO 319 20 F 126 20-29 2:22:36.1 2:22:55.6
610 Cheryl Hohe St. Charles MO 318 46 F 50 40-49 2:22:36.3 2:22:55.8
611 Matt Boyd Columbia MO 51 26 M 98 20-29 2:22:45.5 2:23:12.2
612 Christie Anliker Columbia MO 18 38 F 89 30-39 2:22:48.0 2:23:04.4
613 Buddy Anliker Columbia MO 16 45 M 57 40-49 2:22:51.9 2:23:07.4
614 Gina Sanders Columbia MO 626 44 F 51 40-49 2:22:52.7 2:24:08.2
615 Karlee Trankler Wildwood MO 727 26 F 127 20-29 2:22:59.7 2:24:05.9
616 Shelby Dixon columbia MO 154 21 F 128 20-29 2:23:00.4 2:23:28.8
617 Mona Fierro Corona CA 195 47 F 52 40-49 2:23:30.9 2:24:46.7
618 Elizabeth Hatting Columbia MO 285 23 F 129 20-29 2:23:45.5 2:24:26.1
619 Shena Latcham Columbia MO 424 35 F 90 30-39 2:23:49.8 2:24:50.4
620 Dawn Peck columbia MO 552 37 F 91 30-39 2:23:50.6 2:24:50.8
621 Laura Darolia Columbia MO 136 32 F 92 30-39 2:23:50.6 2:24:56.2
622 Darla Tharp Columbia MO 718 33 M 87 30-39 2:23:50.7 2:24:50.4
623 Matt Galakatos Columbia MO 230 21 M 99 20-29 2:23:56.6 2:24:32.1
624 Elizabeth Emeigh Lawrence KS 182 31 F 93 30-39 2:24:02.7 2:24:36.0
625 Helen Wagner Arvada CO 756 50 F 14 50-59 2:24:28.1 2:24:41.6
626 Aaron Lackman Holt Summit MO 416 34 M 88 30-39 2:24:28.4 2:24:41.9
627 Samantha Gerke Columbia MO 239 23 F 130 20-29 2:24:47.4 2:25:22.0
628 Taylor Spratt Springfield MO 679 24 F 131 20-29 2:24:49.0 2:25:12.6
629 Lauren Fischer Kansas City MO 200 23 F 132 20-29 2:25:00.7 2:26:21.0
630 Barbara Burnett Jefferson City MO 83 66 F 7 60-99 2:25:08.6 2:25:41.3
631 julie ellis spingfield MO 179 50 F 15 50-59 2:25:14.3 2:25:22.4
632 Jason Germany Columbia MO 241 33 M 89 30-39 2:25:37.4 2:26:52.2
633 Elizabeth Hathaway Chicago IL 284 34 F 94 30-39 2:25:53.2 2:25:58.7
634 Nicholas Powell Columbia MO 569 20 M 100 20-29 2:26:09.6 2:26:30.7
635 Courtney Current Columbia MO 131 23 F 133 20-29 2:26:18.2 2:26:54.4
636 Candy Gabel Columbia MO 229 55 F 16 50-59 2:26:26.2 2:27:23.9
637 Josh Erwin Columbia MO 186 22 M 101 20-29 2:26:48.1 2:27:20.9
638 Jill Rockett Hartsburg MO 606 49 F 53 40-49 2:27:02.0 2:27:49.0
639 todd rockett hartsburg MO 607 49 M 58 40-49 2:27:02.1 2:27:49.1
640 Maureen Kokoska Columbia MO 407 53 F 17 50-59 2:27:06.6 2:27:15.2
641 Clare Temperelli Kansas City MO 715 22 F 134 20-29 2:27:11.4 2:27:52.7
642 Grace Horn Lee's Summit MO 328 20 F 135 20-29 2:27:13.2 2:27:53.7
643 Julie Holtmann St. Louis MO 324 20 F 136 20-29 2:27:15.0 2:27:55.9
644 Amy Hotchkiss Columbia MO 332 22 F 137 20-29 2:27:20.6 2:28:06.6
645 Lara Penn Dardenne Prairie MO 554 41 F 54 40-49 2:27:25.9 2:27:45.5
646 Katherine Mulia Columbia MO 517 29 F 138 20-29 2:27:35.7 2:28:49.4
647 Carol Walter Salem MO 758 55 F 18 50-59 2:27:36.8 2:27:52.9
648 Kathryn Sapp Columbia MO 630 46 F 55 40-49 2:28:14.1 2:29:36.0
649 Bobbi McCormack Columbia MO 472 38 F 95 30-39 2:28:25.8 2:29:27.7
650 Caitlin Smith Jefferson City MO 662 20 F 139 20-29 2:28:39.2 2:29:18.1
651 Tiffany Dillmore Raleigh NC 149 38 F 96 30-39 2:29:20.2 2:29:37.2
652 Amber Schmidtke Lansing KS 635 32 F 97 30-39 2:29:21.4 2:29:41.4
653 John Schmidtke Lansing KS 636 34 M 90 30-39 2:29:21.8 2:29:41.7
654 Nola Moore jacksonville MO 509 41 F 56 40-49 2:29:31.2 2:30:03.9
655 Hope Dunnuck Centralia MO 166 42 F 57 40-49 2:29:38.8 2:30:56.7
656 Paula Frazier Kearney MO 219 52 F 19 50-59 2:29:58.2 2:30:58.4
657 Chris Smith Columbia MO 663 33 M 91 30-39 2:30:03.8 2:31:23.5
658 Gina Brownlee Kansas City MO 68 52 F 20 50-59 2:30:06.8 2:36:29.8
659 Megan Staszcuk Columbia MO 685 36 F 98 30-39 2:30:09.3 2:31:34.0
660 Tiffanie Hancock Columbia MO 270 27 F 140 20-29 2:30:30.3 2:30:51.3
661 Melissa Herriman Claremore OK 302 36 F 99 30-39 2:30:43.3 2:31:50.3
662 Russ Anderson 14 36 M 92 30-39 2:30:47.9 2:31:42.1
663 Amanda Wadman Columbia MO 754 38 F 100 30-39 2:31:10.0 2:32:13.3
664 Marianne Jay HALLSVILLE MO 354 41 F 58 40-49 2:31:14.3 2:32:00.5
665 Betsy Bing Union Star MO 43 51 F 21 50-59 2:31:42.9 2:32:40.3
666 CheesePuff Canova Kansas City MO 92 23 M 102 20-29 2:32:03.9 2:38:10.8
667 Elaina Brownlee Kansas City MO 67 22 F 141 20-29 2:32:04.0 2:38:10.8
668 Nicole Absheer O F MO 3 37 F 101 30-39 2:32:04.1 2:32:50.2
669 bobbi keezell cameron